Norsul Tubarao — 3FJV6 — position and weather

sailwx.info

Track history (hours):
 
Tides and Currents Weather Stations Pressure Air Temp Water Temp Dewpoint Dewpoint Depression Visibility Wind Speed Wind Dir Waves Ship Positions

Norsul Tubarao

Last reported at 2017-Apr-01 18:26 UTC. Time now 2017-Apr-23 13:53 UTC.
Position N 01°59' E 102°12'.
Warning: this ship's position is 21 days out of date.

Length 175 m; draft 7.3 m.

Type: Cargo ship. MMSI: 373182000.

Date/timePositionNaut miles runAvg speedWind from/ knotsBaromVisibWave heightAir tempDewpointWater temp
2017-Apr-01 18:26N 01°59' E 102°12'1011.2
2017-Apr-01 17:30N 01°53' E 102°21'610.9
2017-Apr-01 17:00N 01°51' E 102°26'510.4
2017-Apr-01 16:30N 01°49' E 102°31'510.2
2017-Apr-01 15:59N 01°47' E 102°36'510.1
2017-Apr-01 15:30N 01°44' E 102°40'510.4
2017-Apr-01 14:59N 01°42' E 102°45'510.6
2017-Apr-01 14:30N 01°40' E 102°50'4511.2
2017-Apr-01 10:31N 01°14' E 103°26'510.9
2017-Apr-01 10:03N 01°13' E 103°31'110.9
2017-Apr-01 09:58N 01°12' E 103°32'510.1
2017-Apr-01 09:30N 01°11' E 103°36'510.3
2017-Apr-01 09:00N 01°10' E 103°41'5 9.2
2017-Apr-01 08:30N 01°09' E 103°46'611.1
2017-Apr-01 07:59N 01°12' E 103°51'510.7
2017-Apr-01 07:30N 01°14' E 103°55'4 7.7
2017-Apr-01 07:00N 01°15' E 103°59'4 7.7
2017-Apr-01 06:30N 01°16' E 104°03'3 6.3
2017-Apr-01 05:59N 01°17' E 104°06'0 0.1
2017-Apr-01 02:25N 01°18' E 104°06'0 0.1
2017-Apr-01 01:46N 01°18' E 104°06'0 0.0
2017-Apr-01 01:16N 01°18' E 104°06'0 0.0
2017-Apr-01 00:46N 01°18' E 104°06'0 0.0
2017-Apr-01 00:22N 01°18' E 104°06'0 0.0
2017-Mar-31 22:49N 01°18' E 104°06'0 0.0
2017-Mar-31 22:28N 01°18' E 104°06'0 0.0
2017-Mar-31 21:34N 01°18' E 104°06'0 0.0
2017-Mar-31 21:19N 01°18' E 104°06'0 0.0
2017-Mar-31 20:46N 01°18' E 104°06'0 0.0
2017-Mar-31 20:28N 01°18' E 104°06'0 0.0
2017-Mar-31 18:58N 01°18' E 104°06'0 0.3
2017-Mar-31 18:25N 01°18' E 104°06'0 0.0
2017-Mar-31 10:34N 01°18' E 104°05'0 0.6
2017-Mar-31 10:28N 01°18' E 104°05'0 0.2
2017-Mar-31 08:23N 01°18' E 104°06'  
Track history (hours):
 
Tides and Currents Weather Stations Pressure Air Temp Water Temp Dewpoint Dewpoint Depression Visibility Wind Speed Wind Dir Waves Ship Positions

Norsul Tubarao

Last reported at 2017-Apr-01 18:26 UTC. Time now 2017-Apr-23 13:53 UTC.
Position N 01°59' E 102°12'.
Warning: this ship's position is 21 days out of date.

Length 175 m; draft 7.3 m.

Type: Cargo ship. MMSI: 373182000.

Date/timePositionNaut miles runAvg speedWind from/ knotsBaromVisibWave heightAir tempDewpointWater temp
2017-Apr-01 18:26N 01°59' E 102°12'1011.2
2017-Apr-01 17:30N 01°53' E 102°21'610.9
2017-Apr-01 17:00N 01°51' E 102°26'510.4
2017-Apr-01 16:30N 01°49' E 102°31'510.2
2017-Apr-01 15:59N 01°47' E 102°36'510.1
2017-Apr-01 15:30N 01°44' E 102°40'510.4
2017-Apr-01 14:59N 01°42' E 102°45'510.6
2017-Apr-01 14:30N 01°40' E 102°50'4511.2
2017-Apr-01 10:31N 01°14' E 103°26'510.9
2017-Apr-01 10:03N 01°13' E 103°31'110.9
2017-Apr-01 09:58N 01°12' E 103°32'510.1
2017-Apr-01 09:30N 01°11' E 103°36'510.3
2017-Apr-01 09:00N 01°10' E 103°41'5 9.2
2017-Apr-01 08:30N 01°09' E 103°46'611.1
2017-Apr-01 07:59N 01°12' E 103°51'510.7
2017-Apr-01 07:30N 01°14' E 103°55'4 7.7
2017-Apr-01 07:00N 01°15' E 103°59'4 7.7
2017-Apr-01 06:30N 01°16' E 104°03'3 6.3
2017-Apr-01 05:59N 01°17' E 104°06'0 0.1
2017-Apr-01 02:25N 01°18' E 104°06'0 0.1
2017-Apr-01 01:46N 01°18' E 104°06'0 0.0
2017-Apr-01 01:16N 01°18' E 104°06'0 0.0
2017-Apr-01 00:46N 01°18' E 104°06'0 0.0
2017-Apr-01 00:22N 01°18' E 104°06'0 0.0
2017-Mar-31 22:49N 01°18' E 104°06'0 0.0
2017-Mar-31 22:28N 01°18' E 104°06'0 0.0
2017-Mar-31 21:34N 01°18' E 104°06'0 0.0
2017-Mar-31 21:19N 01°18' E 104°06'0 0.0
2017-Mar-31 20:46N 01°18' E 104°06'0 0.0
2017-Mar-31 20:28N 01°18' E 104°06'0 0.0
2017-Mar-31 18:58N 01°18' E 104°06'0 0.3
2017-Mar-31 18:25N 01°18' E 104°06'0 0.0
2017-Mar-31 10:34N 01°18' E 104°05'0 0.6
2017-Mar-31 10:28N 01°18' E 104°05'0 0.2
2017-Mar-31 08:23N 01°18' E 104°06'  

Dump ship's entire track history